Time;durP1;ratioP1;P1;durP2;ratioP2;P2;SDS_P1;SDS_P2;PMS_P1;PMS_P2;Temp;Humidity;BMP_temperature;BMP_pressure;BME280_temperature;BME280_humidity;BME280_pressure;Samples;Min_cycle;Max_cycle;Signal;HPM_P1;HPM_P2
2022/07/30 00:00:39;;;;;;;5.78;4.15;;;16.30;99.90;;;;;;4997022;28;20050;-72
2022/07/30 00:03:05;;;;;;;5.03;4.18;;;16.20;99.90;;;;;;4995254;28;20078;-72
2022/07/30 00:05:31;;;;;;;8.82;4.20;;;16.30;99.90;;;;;;4979083;28;20050;-71
2022/07/30 00:07:56;;;;;;;6.18;4.35;;;16.20;99.90;;;;;;4996950;28;20093;-72
2022/07/30 00:10:22;;;;;;;4.88;4.13;;;16.20;99.90;;;;;;4995090;28;20046;-72
2022/07/30 00:12:48;;;;;;;6.35;4.63;;;16.20;99.90;;;;;;4995355;28;20047;-71
2022/07/30 00:15:14;;;;;;;5.88;4.40;;;16.20;99.90;;;;;;4996213;28;20106;-72
2022/07/30 00:17:39;;;;;;;6.03;4.60;;;16.10;99.90;;;;;;4979071;28;20067;-71
2022/07/30 00:20:05;;;;;;;5.57;4.40;;;16.20;99.90;;;;;;4996088;28;20054;-71
2022/07/30 00:22:31;;;;;;;7.75;5.13;;;16.10;99.90;;;;;;4994844;28;20052;-72
2022/07/30 00:24:57;;;;;;;5.47;4.05;;;16.10;99.90;;;;;;4978865;28;20045;-71
2022/07/30 00:27:23;;;;;;;10.50;4.93;;;16.00;99.90;;;;;;4994912;28;20100;-72
2022/07/30 00:29:49;;;;;;;6.55;4.68;;;16.10;99.90;;;;;;4995928;28;20054;-72
2022/07/30 00:32:15;;;;;;;6.72;5.00;;;16.10;99.90;;;;;;4995119;28;20042;-72
2022/07/30 00:34:40;;;;;;;7.60;4.93;;;16.00;99.90;;;;;;4994861;28;20490;-72
2022/07/30 00:37:06;;;;;;;6.57;4.68;;;16.00;99.90;;;;;;4978629;28;20042;-71
2022/07/30 00:39:32;;;;;;;7.38;5.10;;;16.00;99.90;;;;;;4996498;28;20117;-71
2022/07/30 00:42:01;;;;;;;7.63;5.10;;;16.10;99.90;;;;;;4978516;28;20478;-72
2022/07/30 00:44:28;;;;;;;6.15;5.20;;;16.00;99.90;;;;;;4996426;28;20065;-72
2022/07/30 00:46:54;;;;;;;5.53;4.78;;;16.00;99.90;;;;;;4994117;28;20478;-72
2022/07/30 00:49:20;;;;;;;6.65;5.32;;;16.20;99.90;;;;;;4995771;28;20467;-72
2022/07/30 00:51:46;;;;;;;6.22;5.32;;;16.00;99.90;;;;;;4994310;28;20054;-72
2022/07/30 00:54:12;;;;;;;5.95;5.20;;;16.10;99.90;;;;;;4994747;28;20038;-72
2022/07/30 00:56:38;;;;;;;9.18;5.88;;;16.00;99.90;;;;;;4994991;28;20046;-72
2022/07/30 00:59:04;;;;;;;6.55;5.22;;;15.90;99.90;;;;;;4994945;28;20112;-72
2022/07/30 01:01:34;;;;;;;5.95;4.97;;;15.90;99.90;;;;;;4978086;28;20117;-71
2022/07/30 01:04:00;;;;;;;6.78;5.43;;;15.90;99.90;;;;;;4978896;28;20074;-71
2022/07/30 01:06:25;;;;;;;8.13;4.90;;;15.80;99.90;;;;;;4995264;28;20087;-71
2022/07/30 01:08:51;;;;;;;6.18;5.15;;;15.80;99.90;;;;;;4995127;28;20054;-71
2022/07/30 01:11:17;;;;;;;7.32;5.55;;;15.80;99.90;;;;;;4977717;28;20067;-72
2022/07/30 01:13:44;;;;;;;7.22;5.40;;;15.80;99.90;;;;;;4977755;28;20464;-72
2022/07/30 01:16:10;;;;;;;6.45;5.35;;;15.90;99.90;;;;;;4995011;28;20057;-71
2022/07/30 01:21:31;;;;;;;7.22;5.28;;;15.70;99.90;;;;;;4993936;28;20479;-71
2022/07/30 01:24:06;;;;;;;5.70;5.03;;;15.70;99.90;;;;;;4995759;28;20363;-71
2022/07/30 01:26:33;;;;;;;7.55;5.22;;;15.60;99.90;;;;;;4993709;28;20042;-71
2022/07/30 01:29:00;;;;;;;8.00;5.85;;;15.90;99.90;;;;;;4993276;28;20490;-70
2022/07/30 01:31:27;;;;;;;7.25;5.38;;;15.70;99.90;;;;;;4993583;28;20042;-71
2022/07/30 01:33:54;;;;;;;6.65;5.55;;;15.60;99.90;;;;;;4994684;28;20042;-72
2022/07/30 01:36:22;;;;;;;7.40;5.07;;;15.50;99.90;;;;;;4994719;28;20057;-72
2022/07/30 01:38:50;;;;;;;7.55;5.43;;;15.60;99.90;;;;;;4994641;28;20136;-71
2022/07/30 01:41:18;;;;;;;5.93;5.32;;;15.60;99.90;;;;;;4994560;28;20058;-71
2022/07/30 01:43:45;;;;;;;8.60;6.47;;;15.60;99.90;;;;;;4993443;28;20053;-71
2022/07/30 01:46:11;;;;;;;7.05;5.63;;;15.50;99.90;;;;;;4995037;28;20050;-71
2022/07/30 01:48:39;;;;;;;7.85;5.50;;;15.50;99.90;;;;;;4995262;28;20128;-71
2022/07/30 01:51:06;;;;;;;8.77;5.82;;;15.50;99.90;;;;;;4994267;28;20104;-71
2022/07/30 01:53:37;;;;;;;7.93;5.70;;;15.60;99.90;;;;;;4995206;28;20092;-72
2022/07/30 01:56:04;;;;;;;6.53;5.75;;;15.50;99.90;;;;;;4994324;28;20054;-71
2022/07/30 01:58:35;;;;;;;9.02;6.65;;;15.20;99.90;;;;;;4994355;28;20050;-72
2022/07/30 02:01:01;;;;;;;9.15;6.20;;;15.40;99.90;;;;;;4993700;28;20039;-72
2022/07/30 02:03:27;;;;;;;7.00;5.97;;;15.30;99.90;;;;;;4992948;28;20204;-72
2022/07/30 02:06:16;;;;;;;7.18;5.60;;;15.40;99.90;;;;;;4976914;28;20049;-71
2022/07/30 02:08:47;;;;;;;6.60;5.50;;;15.40;99.90;;;;;;4993917;28;20054;-71
2022/07/30 02:14:06;;;;;;;6.88;5.93;;;15.40;99.90;;;;;;4993260;28;20108;-71
2022/07/30 02:16:37;;;;;;;7.72;6.78;;;15.60;99.90;;;;;;4993311;28;20376;-71
2022/07/30 02:19:10;;;;;;;7.30;6.35;;;15.40;99.90;;;;;;4996342;28;20058;-71
2022/07/30 02:21:41;;;;;;;8.23;6.07;;;15.30;99.90;;;;;;5000046;28;20061;-71
2022/07/30 02:24:12;;;;;;;7.15;6.43;;;15.20;99.90;;;;;;5000746;28;20042;-71
2022/07/30 02:26:41;;;;;;;7.55;6.80;;;15.10;99.90;;;;;;4983455;28;20482;-71
2022/07/30 02:29:08;;;;;;;7.65;6.38;;;15.00;99.90;;;;;;5000587;28;20094;-71
2022/07/30 02:31:37;;;;;;;7.80;7.00;;;15.40;99.90;;;;;;4983420;28;20046;-71
2022/07/30 02:34:05;;;;;;;8.48;6.15;;;15.10;99.90;;;;;;4999579;28;20042;-71
2022/07/30 02:36:32;;;;;;;8.85;6.03;;;15.30;99.90;;;;;;5001058;28;20054;-71
2022/07/30 02:39:00;;;;;;;5.95;5.35;;;15.00;99.90;;;;;;5000164;28;20057;-71
2022/07/30 02:41:28;;;;;;;7.32;5.63;;;15.00;99.90;;;;;;4999233;28;20097;-71
2022/07/30 02:43:56;;;;;;;6.85;5.70;;;15.10;99.90;;;;;;5000181;28;20487;-71
2022/07/30 02:46:23;;;;;;;5.68;5.18;;;15.10;99.90;;;;;;4983231;28;20046;-71
2022/07/30 02:48:52;;;;;;;6.35;5.35;;;14.90;99.90;;;;;;4983281;28;20053;-71
2022/07/30 02:51:19;;;;;;;7.38;5.72;;;15.10;99.90;;;;;;5000402;28;20081;-71
2022/07/30 02:53:47;;;;;;;7.40;5.78;;;15.00;99.90;;;;;;4999153;28;20054;-71
2022/07/30 02:56:14;;;;;;;10.25;5.78;;;15.00;99.90;;;;;;5000375;28;20097;-71
2022/07/30 02:58:42;;;;;;;7.35;5.53;;;15.00;99.90;;;;;;4999378;28;20082;-72
2022/07/30 03:01:10;;;;;;;8.80;6.03;;;15.00;99.90;;;;;;4983397;28;20077;-72
2022/07/30 03:03:36;;;;;;;8.48;5.90;;;15.00;99.90;;;;;;4999328;28;20065;-72
2022/07/30 03:06:04;;;;;;;7.80;5.63;;;14.90;99.90;;;;;;4999982;28;20086;-72
2022/07/30 03:08:31;;;;;;;8.00;5.78;;;15.00;99.90;;;;;;5001079;28;20093;-72
2022/07/30 03:10:58;;;;;;;6.25;5.63;;;14.90;99.90;;;;;;4999180;28;20050;-71
2022/07/30 03:13:24;;;;;;;8.70;6.10;;;14.90;99.90;;;;;;4951195;28;20046;-71
2022/07/30 03:15:51;;;;;;;5.70;5.13;;;14.90;99.90;;;;;;4999225;28;20051;-71
2022/07/30 03:18:19;;;;;;;8.35;5.85;;;15.20;99.90;;;;;;4982996;28;20054;-71
2022/07/30 03:20:53;;;;;;;6.28;5.18;;;14.80;99.90;;;;;;4982636;28;20058;-72
2022/07/30 03:23:21;;;;;;;6.43;5.00;;;15.00;99.90;;;;;;5000634;28;20050;-71
2022/07/30 03:25:53;;;;;;;6.00;5.20;;;14.80;99.90;;;;;;4999903;28;20402;-71
2022/07/30 03:28:20;;;;;;;5.80;4.93;;;14.80;99.90;;;;;;5000164;28;20054;-71
2022/07/30 03:30:46;;;;;;;7.25;5.18;;;14.60;99.90;;;;;;4997344;28;20076;-71
2022/07/30 03:33:14;;;;;;;6.90;5.47;;;14.70;99.90;;;;;;4997592;28;20459;-71
2022/07/30 03:35:42;;;;;;;8.00;6.25;;;14.60;99.90;;;;;;4996120;28;20046;-71
2022/07/30 03:38:11;;;;;;;7.35;6.65;;;14.50;99.90;;;;;;4996107;28;20054;-71
2022/07/30 03:40:39;;;;;;;7.75;6.40;;;14.80;99.90;;;;;;4995928;28;20433;-71
2022/07/30 03:43:08;;;;;;;9.63;6.55;;;14.60;99.90;;;;;;4995981;28;20046;-71
2022/07/30 03:45:36;;;;;;;7.90;6.82;;;14.60;99.90;;;;;;4995692;28;20446;-71
2022/07/30 03:48:03;;;;;;;9.20;7.20;;;14.50;99.90;;;;;;4996824;28;20046;-71
2022/07/30 03:50:30;;;;;;;7.30;6.60;;;14.50;99.90;;;;;;4979795;28;20054;-71
2022/07/30 03:52:56;;;;;;;7.68;6.88;;;14.50;99.90;;;;;;4995552;28;20042;-71
2022/07/30 03:55:22;;;;;;;7.68;6.88;;;14.50;99.90;;;;;;4996570;28;20093;-71
2022/07/30 03:57:48;;;;;;;8.05;7.07;;;14.60;99.90;;;;;;4996511;28;20092;-71
2022/07/30 04:00:15;;;;;;;8.90;6.75;;;14.50;99.90;;;;;;4996460;28;20038;-71
2022/07/30 04:02:45;;;;;;;8.48;7.60;;;14.50;99.90;;;;;;4996239;28;20104;-71
2022/07/30 04:05:15;;;;;;;9.32;8.00;;;14.30;99.90;;;;;;4996734;28;20446;-70
2022/07/30 04:07:41;;;;;;;9.88;7.45;;;14.50;99.90;;;;;;4995198;28;20057;-71
2022/07/30 04:10:07;;;;;;;8.82;7.22;;;14.30;99.90;;;;;;4979232;28;20058;-71
2022/07/30 04:12:34;;;;;;;8.40;7.50;;;14.40;99.90;;;;;;4994951;28;20053;-71
2022/07/30 04:14:59;;;;;;;8.85;7.95;;;14.40;99.90;;;;;;4996024;28;20050;-71
2022/07/30 04:17:34;;;;;;;9.15;7.53;;;14.20;99.90;;;;;;4996696;28;20058;-71
2022/07/30 04:20:12;;;;;;;10.85;8.05;;;14.40;99.90;;;;;;4979057;28;20038;-71
2022/07/30 04:22:39;;;;;;;11.10;7.32;;;14.30;99.90;;;;;;4995413;28;20137;-71
2022/07/30 04:25:07;;;;;;;10.35;8.48;;;14.40;99.90;;;;;;4994863;28;20140;-71
2022/07/30 04:27:34;;;;;;;9.77;8.48;;;14.30;99.90;;;;;;4978881;28;20574;-71
2022/07/30 04:30:00;;;;;;;10.55;8.90;;;14.30;99.90;;;;;;4996288;28;20057;-71
2022/07/30 04:32:26;;;;;;;12.73;9.82;;;14.40;99.90;;;;;;4995862;28;20046;-71
2022/07/30 04:34:53;;;;;;;13.48;10.77;;;14.40;99.90;;;;;;4994730;28;20046;-70
2022/07/30 04:37:22;;;;;;;14.77;11.15;;;14.50;99.90;;;;;;4995782;28;20390;-71
2022/07/30 04:39:50;;;;;;;12.32;10.02;;;14.40;99.90;;;;;;4995825;28;20073;-71
2022/07/30 04:42:16;;;;;;;13.20;9.27;;;14.50;99.90;;;;;;4995351;28;20209;-71
2022/07/30 04:44:41;;;;;;;12.88;9.52;;;14.70;99.90;;;;;;4995478;28;20081;-71
2022/07/30 04:47:07;;;;;;;12.90;9.80;;;14.50;99.90;;;;;;4994981;28;20085;-70
2022/07/30 04:49:34;;;;;;;14.35;9.88;;;14.50;99.90;;;;;;4978471;28;20046;-71
2022/07/30 04:52:01;;;;;;;13.80;9.95;;;14.40;99.90;;;;;;4996341;28;20050;-71
2022/07/30 04:54:37;;;;;;;11.40;9.70;;;14.60;99.90;;;;;;4994751;28;20093;-71
2022/07/30 04:57:04;;;;;;;10.45;9.35;;;14.80;99.90;;;;;;4995475;28;20100;-71
2022/07/30 04:59:30;;;;;;;13.68;10.40;;;14.60;99.90;;;;;;4995324;28;20057;-71
2022/07/30 05:01:58;;;;;;;11.52;9.80;;;14.70;99.90;;;;;;4995069;28;20399;-71
2022/07/30 05:04:25;;;;;;;15.00;10.65;;;14.50;99.90;;;;;;4978083;28;20486;-71
2022/07/30 05:06:52;;;;;;;12.88;10.93;;;14.80;99.90;;;;;;4977946;28;20499;-71
2022/07/30 05:09:18;;;;;;;11.95;9.48;;;14.60;99.90;;;;;;4978021;28;20402;-71
2022/07/30 05:11:55;;;;;;;12.90;10.77;;;14.80;99.90;;;;;;4977961;28;20467;-71
2022/07/30 05:14:22;;;;;;;13.65;10.88;;;14.90;99.90;;;;;;4994187;28;20048;-71
2022/07/30 05:16:48;;;;;;;12.32;9.73;;;15.00;99.90;;;;;;4995535;28;20050;-71
2022/07/30 05:19:14;;;;;;;13.57;10.63;;;15.10;99.90;;;;;;4993854;28;20057;-71
2022/07/30 05:21:39;;;;;;;12.98;9.85;;;14.90;99.90;;;;;;4977281;28;20050;-71
2022/07/30 05:24:06;;;;;;;14.13;11.07;;;15.10;99.90;;;;;;4994570;28;20046;-71
2022/07/30 05:26:32;;;;;;;16.27;10.63;;;15.10;99.90;;;;;;4993894;28;20085;-71
2022/07/30 05:28:57;;;;;;;14.48;11.20;;;15.40;99.90;;;;;;4994822;28;20100;-71
2022/07/30 05:31:24;;;;;;;15.43;10.73;;;15.30;99.90;;;;;;4994617;28;20050;-71
2022/07/30 05:33:49;;;;;;;12.35;10.15;;;15.40;99.90;;;;;;4993593;28;20137;-71
2022/07/30 05:36:15;;;;;;;11.65;9.73;;;15.40;99.90;;;;;;4993570;28;20133;-71
2022/07/30 05:38:41;;;;;;;13.55;11.48;;;15.40;99.90;;;;;;4993647;28;20043;-71
2022/07/30 05:41:06;;;;;;;12.93;10.40;;;15.60;99.90;;;;;;4994605;28;20054;-71
2022/07/30 05:43:32;;;;;;;18.00;10.82;;;15.50;99.90;;;;;;4995152;28;20039;-71
2022/07/30 05:45:58;;;;;;;14.85;10.95;;;15.60;99.90;;;;;;4977187;28;20128;-72
2022/07/30 05:48:23;;;;;;;10.73;8.77;;;15.50;99.90;;;;;;4994528;28;20082;-71
2022/07/30 05:50:49;;;;;;;16.33;10.43;;;15.70;99.90;;;;;;4994500;28;20149;-72
2022/07/30 05:53:15;;;;;;;12.10;9.90;;;15.60;99.90;;;;;;4992602;28;20054;-71
2022/07/30 05:55:40;;;;;;;12.52;9.93;;;15.90;99.90;;;;;;4993323;28;20050;-71
2022/07/30 05:58:06;;;;;;;14.25;10.18;;;15.80;99.90;;;;;;4994671;28;20129;-71
2022/07/30 06:00:34;;;;;;;15.70;10.52;;;15.90;99.90;;;;;;4977597;28;20054;-71
2022/07/30 06:03:00;;;;;;;15.90;10.57;;;16.20;99.90;;;;;;4994383;28;20057;-71
2022/07/30 06:05:26;;;;;;;17.40;10.57;;;16.20;99.90;;;;;;4994273;28;20050;-72
2022/07/30 06:07:51;;;;;;;13.13;11.00;;;16.30;99.90;;;;;;4992946;28;20054;-72
2022/07/30 06:10:17;;;;;;;13.63;10.57;;;16.00;99.90;;;;;;4977191;28;20080;-72
2022/07/30 06:12:43;;;;;;;15.55;10.65;;;16.10;99.90;;;;;;4993910;28;20052;-72
2022/07/30 06:15:10;;;;;;;13.07;10.23;;;16.30;99.90;;;;;;4993028;28;20089;-71
2022/07/30 06:17:46;;;;;;;12.32;9.65;;;16.40;99.90;;;;;;4993230;28;20441;-72
2022/07/30 06:20:13;;;;;;;12.57;10.35;;;16.40;99.90;;;;;;4977857;28;20050;-72
2022/07/30 06:22:39;;;;;;;14.65;10.20;;;16.40;99.90;;;;;;4994114;28;20047;-71
2022/07/30 06:25:06;;;;;;;13.07;10.20;;;16.60;99.90;;;;;;4994098;28;20064;-72
2022/07/30 06:27:32;;;;;;;13.05;9.60;;;16.50;99.90;;;;;;4976956;28;20093;-72
2022/07/30 06:30:04;;;;;;;12.68;9.63;;;16.80;99.90;;;;;;4976911;28;20086;-72
2022/07/30 06:32:29;;;;;;;13.60;10.02;;;16.90;99.90;;;;;;4992848;28;20109;-72
2022/07/30 06:34:55;;;;;;;13.85;10.20;;;16.90;99.90;;;;;;4994828;28;20050;-72
2022/07/30 06:37:21;;;;;;;13.18;9.73;;;17.00;99.90;;;;;;4993058;28;20097;-72
2022/07/30 06:39:47;;;;;;;17.08;10.73;;;17.10;99.90;;;;;;4993091;28;20466;-72
2022/07/30 06:42:13;;;;;;;12.80;10.18;;;17.20;99.90;;;;;;4992462;28;20047;-71
2022/07/30 06:44:38;;;;;;;14.50;9.90;;;17.10;99.90;;;;;;4993971;28;20125;-72
2022/07/30 06:47:05;;;;;;;10.75;9.35;;;17.20;99.90;;;;;;4992662;28;20410;-72
2022/07/30 06:49:31;;;;;;;11.85;9.30;;;17.30;99.90;;;;;;4992314;28;20058;-72
2022/07/30 06:51:57;;;;;;;10.23;8.00;;;17.50;99.90;;;;;;4993843;28;20046;-72
2022/07/30 06:54:23;;;;;;;12.70;9.48;;;17.70;99.90;;;;;;4976509;28;20046;-72
2022/07/30 06:56:49;;;;;;;12.52;9.65;;;17.60;99.90;;;;;;4992896;28;20038;-72
2022/07/30 06:59:15;;;;;;;10.70;9.63;;;17.60;99.90;;;;;;4992857;28;20513;-72
2022/07/30 07:01:41;;;;;;;11.50;9.55;;;17.60;99.90;;;;;;4992624;28;20073;-73
2022/07/30 07:04:07;;;;;;;13.38;9.77;;;17.80;99.90;;;;;;4977018;28;20054;-72
2022/07/30 07:06:33;;;;;;;10.93;8.07;;;17.90;99.90;;;;;;4997388;28;20058;-72
2022/07/30 07:08:58;;;;;;;11.70;7.57;;;18.00;99.90;;;;;;4996464;28;20055;-72
2022/07/30 07:11:24;;;;;;;11.93;7.72;;;17.80;99.90;;;;;;4980786;28;20046;-72
2022/07/30 07:13:50;;;;;;;8.20;7.03;;;18.00;99.90;;;;;;4996041;28;20501;-72
2022/07/30 07:16:15;;;;;;;10.45;7.88;;;18.10;99.90;;;;;;4997546;28;20047;-73
2022/07/30 07:18:41;;;;;;;9.10;8.15;;;18.20;99.90;;;;;;4996323;28;20482;-72
2022/07/30 07:21:07;;;;;;;13.90;9.30;;;18.30;99.90;;;;;;4997751;28;20438;-73
2022/07/30 07:23:33;;;;;;;13.20;9.20;;;18.30;99.90;;;;;;4996047;28;20050;-72
2022/07/30 07:25:59;;;;;;;13.65;9.32;;;18.40;99.90;;;;;;4964035;28;20054;-73
2022/07/30 07:28:25;;;;;;;10.88;7.57;;;18.60;99.90;;;;;;4997083;28;20046;-72
2022/07/30 07:30:51;;;;;;;9.82;7.82;;;18.60;99.90;;;;;;4997585;28;20054;-73
2022/07/30 07:33:17;;;;;;;11.98;7.70;;;18.60;99.90;;;;;;4979401;28;20146;-72
2022/07/30 07:35:42;;;;;;;11.45;8.35;;;18.80;99.90;;;;;;4997013;28;20053;-73
2022/07/30 07:38:08;;;;;;;13.23;8.18;;;18.70;99.90;;;;;;4997024;28;20474;-70
2022/07/30 07:40:34;;;;;;;11.30;8.10;;;18.80;99.90;;;;;;4996753;28;20046;-73
2022/07/30 07:43:00;;;;;;;12.50;8.70;;;18.80;99.90;;;;;;4996918;28;20173;-71
2022/07/30 07:45:25;;;;;;;13.93;8.93;;;18.90;99.90;;;;;;4996918;28;20133;-71
2022/07/30 07:47:51;;;;;;;11.30;8.77;;;19.00;99.90;;;;;;4997422;28;20046;-72
2022/07/30 07:50:18;;;;;;;10.68;8.50;;;19.00;99.90;;;;;;4980096;28;20470;-71
2022/07/30 07:52:44;;;;;;;12.23;8.80;;;19.10;99.90;;;;;;4996654;28;20077;-71
2022/07/30 07:55:10;;;;;;;12.30;10.25;;;19.40;99.90;;;;;;4996734;28;20129;-71
2022/07/30 07:57:40;;;;;;;11.25;8.38;;;19.30;99.90;;;;;;4996453;28;20050;-72
2022/07/30 08:00:08;;;;;;;10.77;8.80;;;19.10;99.90;;;;;;4995664;28;20486;-73
2022/07/30 08:02:34;;;;;;;11.68;8.82;;;19.40;99.90;;;;;;4980003;28;20046;-70
2022/07/30 08:05:00;;;;;;;11.57;9.43;;;19.30;99.90;;;;;;4995917;28;20050;-70
2022/07/30 08:07:26;;;;;;;9.93;8.52;;;19.40;99.90;;;;;;4996664;28;20065;-70
2022/07/30 08:09:52;;;;;;;11.00;8.77;;;19.40;99.90;;;;;;4995809;28;20050;-70
2022/07/30 08:12:17;;;;;;;10.57;7.18;;;19.60;99.90;;;;;;4996680;28;20046;-71
2022/07/30 08:14:43;;;;;;;10.40;7.20;;;19.60;99.90;;;;;;4995171;28;20109;-71
2022/07/30 08:17:09;;;;;;;8.88;6.47;;;19.70;99.90;;;;;;4994425;28;20145;-70
2022/07/30 08:19:34;;;;;;;8.48;6.53;;;19.60;99.90;;;;;;4995125;28;20054;-70
2022/07/30 08:22:00;;;;;;;9.57;7.20;;;19.70;99.90;;;;;;4995132;28;20398;-69
2022/07/30 08:24:26;;;;;;;9.75;7.07;;;19.80;99.90;;;;;;4996739;28;20042;-70
2022/07/30 08:26:51;;;;;;;8.98;7.22;;;19.80;99.90;;;;;;4996468;28;20137;-70
2022/07/30 08:29:17;;;;;;;9.07;7.78;;;19.90;99.90;;;;;;4995501;28;20050;-70
2022/07/30 08:31:43;;;;;;;12.68;6.57;;;19.90;99.90;;;;;;4996128;28;20054;-69
2022/07/30 08:34:08;;;;;;;12.30;5.97;;;20.00;99.90;;;;;;4994897;28;20050;-68
2022/07/30 08:36:34;;;;;;;8.85;6.07;;;20.00;99.90;;;;;;4962789;28;20137;-69
2022/07/30 08:39:00;;;;;;;9.77;7.00;;;20.10;99.90;;;;;;4994961;28;20058;-70
2022/07/30 08:41:26;;;;;;;9.15;5.93;;;20.10;99.90;;;;;;4994473;28;20376;-70
2022/07/30 08:43:53;;;;;;;9.88;5.68;;;20.20;99.90;;;;;;4995451;28;20053;-69
2022/07/30 08:46:23;;;;;;;9.82;5.53;;;20.30;99.90;;;;;;4995801;28;20050;-68
2022/07/30 08:48:51;;;;;;;6.63;4.78;;;20.30;99.90;;;;;;4995678;28;20054;-70
2022/07/30 08:51:18;;;;;;;6.47;5.55;;;20.40;99.90;;;;;;4996456;28;20132;-70
2022/07/30 08:53:45;;;;;;;9.35;4.53;;;20.40;99.90;;;;;;4995592;28;20086;-70
2022/07/30 08:56:11;;;;;;;7.35;4.97;;;20.50;99.90;;;;;;4994334;28;20047;-70
2022/07/30 08:58:37;;;;;;;8.63;4.88;;;20.50;99.90;;;;;;4994347;28;20129;-70
2022/07/30 09:01:05;;;;;;;8.93;5.20;;;20.60;99.90;;;;;;4995489;28;20158;-69
2022/07/30 09:03:31;;;;;;;7.03;4.75;;;20.60;99.90;;;;;;4994738;28;20054;-70
2022/07/30 09:05:57;;;;;;;8.05;4.53;;;20.70;99.90;;;;;;4994263;28;20073;-70
2022/07/30 09:08:23;;;;;;;7.78;4.88;;;20.70;99.90;;;;;;4996268;28;20053;-69
2022/07/30 09:10:49;;;;;;;8.15;5.45;;;20.70;99.90;;;;;;4994307;28;20517;-71
2022/07/30 09:13:29;;;;;;;10.02;4.93;;;20.80;99.90;;;;;;4995195;28;20038;-69
2022/07/30 09:15:56;;;;;;;6.57;4.82;;;20.80;99.90;;;;;;4995826;28;20046;-70
2022/07/30 09:18:26;;;;;;;8.30;5.90;;;20.90;99.90;;;;;;4995208;28;20553;-70
2022/07/30 09:20:51;;;;;;;9.70;5.43;;;20.90;99.90;;;;;;4977846;28;20046;-67
2022/07/30 09:23:17;;;;;;;8.07;4.95;;;20.90;99.90;;;;;;4977908;28;20061;-69
2022/07/30 09:25:45;;;;;;;8.02;4.90;;;21.00;99.90;;;;;;4977650;28;20050;-70
2022/07/30 09:28:12;;;;;;;8.75;4.43;;;21.00;99.90;;;;;;4992821;28;20043;-70
2022/07/30 09:31:04;;;;;;;6.47;4.50;;;21.10;99.90;;;;;;4995010;28;20396;-70
2022/07/30 09:33:37;;;;;;;8.68;5.53;;;21.20;99.90;;;;;;4992008;28;20090;-70
2022/07/30 09:36:06;;;;;;;;;;;21.20;99.90;;;;;;4978142;28;20132;-69
2022/07/30 09:38:58;;;;;;;6.45;4.72;;;21.20;99.90;;;;;;4994638;28;19921;-69
2022/07/30 09:41:36;;;;;;;5.77;4.23;;;21.30;99.90;;;;;;4992244;28;20058;-69
2022/07/30 09:44:04;;;;;;;6.30;3.78;;;21.40;99.90;;;;;;4994777;28;20073;-69
2022/07/30 09:46:50;;;;;;;6.70;4.93;;;21.50;99.90;;;;;;4994795;28;20058;-70
2022/07/30 09:49:18;;;;;;;8.27;4.78;;;21.60;99.90;;;;;;4994320;28;20060;-69
2022/07/30 09:51:44;;;;;;;7.97;4.07;;;21.60;99.90;;;;;;4977509;28;20054;-70
2022/07/30 09:54:09;;;;;;;7.93;4.40;;;21.50;99.90;;;;;;4993470;28;20193;-70
2022/07/30 09:56:35;;;;;;;5.97;3.95;;;21.50;99.90;;;;;;4976591;28;20129;-70
2022/07/30 09:59:01;;;;;;;7.03;4.20;;;21.50;99.90;;;;;;4992716;28;20555;-71
2022/07/30 10:01:27;;;;;;;8.10;4.50;;;21.60;99.90;;;;;;4992666;28;20104;-72
2022/07/30 10:03:53;;;;;;;6.78;4.15;;;21.60;99.90;;;;;;4993330;28;20058;-71
2022/07/30 10:06:34;;;;;;;8.05;4.03;;;21.70;99.90;;;;;;4993777;28;20054;-72
2022/07/30 10:09:00;;;;;;;8.23;4.07;;;21.80;99.90;;;;;;4976586;28;20057;-71
2022/07/30 10:11:28;;;;;;;6.95;3.65;;;21.90;99.90;;;;;;4976992;28;20466;-71
2022/07/30 10:13:55;;;;;;;7.30;3.70;;;21.90;99.90;;;;;;4976497;28;20053;-72
2022/07/30 10:16:25;;;;;;;7.60;3.92;;;22.00;99.90;;;;;;4976792;28;20054;-72
2022/07/30 10:18:51;;;;;;;6.45;3.25;;;22.10;99.90;;;;;;4993334;28;20112;-72
2022/07/30 10:21:17;;;;;;;6.18;3.13;;;22.10;99.90;;;;;;4976528;28;20091;-71
2022/07/30 10:23:43;;;;;;;4.18;3.10;;;22.10;99.90;;;;;;4992312;28;20536;-72
2022/07/30 10:26:09;;;;;;;6.93;3.50;;;22.00;99.90;;;;;;4992528;28;20133;-72
2022/07/30 10:28:35;;;;;;;5.45;3.42;;;22.00;99.90;;;;;;4993194;28;20093;-71
2022/07/30 10:31:01;;;;;;;5.25;3.67;;;21.90;99.90;;;;;;4976358;28;20047;-71
2022/07/30 10:33:29;;;;;;;7.07;3.88;;;21.90;99.90;;;;;;4960117;28;20054;-71
2022/07/30 10:35:55;;;;;;;6.60;3.08;;;21.90;99.90;;;;;;4992435;28;20477;-72
2022/07/30 10:38:26;;;;;;;4.88;3.35;;;22.00;99.90;;;;;;4976744;28;20100;-70
2022/07/30 10:41:10;;;;;;;5.22;3.15;;;21.90;99.90;;;;;;4996167;28;20426;-70
2022/07/30 10:43:56;;;;;;;4.95;2.80;;;22.00;99.90;;;;;;4979910;28;20042;-73
2022/07/30 10:46:31;;;;;;;4.72;2.63;;;22.00;99.90;;;;;;4996632;28;20046;-72
2022/07/30 10:49:11;;;;;;;3.22;2.20;;;22.10;99.90;;;;;;4996457;28;20057;-71
2022/07/30 10:51:48;;;;;;;5.22;2.85;;;22.20;99.90;;;;;;4995865;28;20077;-71
2022/07/30 10:54:32;;;;;;;5.35;2.70;;;22.30;99.90;;;;;;4979891;28;20486;-74
2022/07/30 10:57:09;;;;;;;5.95;2.60;;;22.30;99.90;;;;;;4996382;28;20061;-70
2022/07/30 10:59:54;;;;;;;4.40;2.28;;;22.40;99.90;;;;;;4996654;28;20081;-70
2022/07/30 11:02:21;;;;;;;4.68;2.55;;;22.40;99.90;;;;;;4996545;28;20046;-71
2022/07/30 11:04:48;;;;;;;5.90;2.20;;;22.30;99.90;;;;;;4995349;28;20061;-71
2022/07/30 11:07:23;;;;;;;4.13;2.83;;;22.40;99.90;;;;;;4996149;28;20058;-71
2022/07/30 11:09:53;;;;;;;5.47;3.00;;;22.50;99.90;;;;;;4997458;28;20058;-69
2022/07/30 11:12:42;;;;;;;4.40;2.67;;;22.50;99.90;;;;;;4996577;28;20050;-71
2022/07/30 11:15:11;;;;;;;2.75;2.33;;;22.60;99.90;;;;;;4979010;28;20042;-73
2022/07/30 11:18:07;;;;;;;4.10;2.00;;;22.70;99.90;;;;;;4996163;28;20058;-71
2022/07/30 11:20:34;;;;;;;7.63;2.45;;;22.80;99.90;;;;;;4996027;28;20149;-70
2022/07/30 11:23:18;;;;;;;2.90;2.00;;;23.00;99.90;;;;;;4995832;28;20466;-70
2022/07/30 11:25:46;;;;;;;4.53;2.30;;;23.10;99.90;;;;;;4995428;28;20053;-70
2022/07/30 11:28:35;;;;;;;3.90;2.10;;;23.10;99.90;;;;;;4996473;28;20133;-70
2022/07/30 11:31:01;;;;;;;4.68;1.65;;;23.10;99.90;;;;;;4995597;28;20046;-70
2022/07/30 11:33:26;;;;;;;5.95;2.25;;;23.20;99.90;;;;;;4979043;28;20066;-71
2022/07/30 11:36:10;;;;;;;5.18;2.38;;;23.20;99.90;;;;;;4994863;28;20085;-70
2022/07/30 11:38:57;;;;;;;4.13;2.60;;;23.20;99.90;;;;;;4996817;28;20132;-71
2022/07/30 11:41:23;;;;;;;2.63;1.92;;;23.30;99.90;;;;;;4994936;28;20054;-71
2022/07/30 11:44:24;;;;;;;4.00;1.98;;;23.30;99.90;;;;;;4994424;28;20046;-71
2022/07/30 11:46:50;;;;;;;3.08;1.90;;;23.30;99.90;;;;;;4978943;28;20054;-70
2022/07/30 11:49:17;;;;;;;4.05;1.70;;;23.40;99.90;;;;;;4962381;28;20057;-72
2022/07/30 11:51:44;;;;;;;3.40;1.67;;;23.40;99.90;;;;;;4993723;28;20042;-74
2022/07/30 11:54:11;;;;;;;3.20;2.10;;;23.50;99.90;;;;;;4995924;28;20498;-74
2022/07/30 11:56:58;;;;;;;3.08;1.80;;;23.60;99.90;;;;;;4978437;28;20089;-73
2022/07/30 11:59:24;;;;;;;6.75;2.33;;;23.60;99.90;;;;;;4994370;28;20038;-70
2022/07/30 12:01:58;;;;;;;2.88;1.60;;;23.60;99.90;;;;;;4995842;28;20062;-72
2022/07/30 12:04:24;;;;;;;2.78;1.52;;;23.60;99.90;;;;;;4994477;28;20058;-71
2022/07/30 12:06:50;;;;;;;3.08;1.77;;;23.60;99.90;;;;;;4978178;28;20058;-71
2022/07/30 12:09:27;;;;;;;3.65;1.70;;;23.60;99.90;;;;;;4995793;28;20105;-71
2022/07/30 12:11:54;;;;;;;3.85;1.83;;;23.60;99.90;;;;;;4963776;28;20038;-72
2022/07/30 12:14:19;;;;;;;4.40;1.60;;;23.60;99.90;;;;;;4996373;28;20046;-72
2022/07/30 12:16:52;;;;;;;4.68;1.73;;;23.50;99.90;;;;;;4996367;28;20372;-72
2022/07/30 12:19:18;;;;;;;4.93;1.67;;;23.50;99.90;;;;;;4997159;28;20057;-73
2022/07/30 12:21:44;;;;;;;2.45;1.40;;;23.50;99.90;;;;;;4995112;28;20478;-72
2022/07/30 12:24:10;;;;;;;4.63;1.55;;;23.60;99.90;;;;;;4996236;28;20053;-72
2022/07/30 12:26:36;;;;;;;4.28;1.45;;;23.70;99.90;;;;;;4996175;28;20038;-71
2022/07/30 12:29:05;;;;;;;2.45;1.70;;;23.90;99.90;;;;;;4978847;28;20495;-71
2022/07/30 12:31:35;;;;;;;4.80;1.98;;;24.00;99.90;;;;;;4995677;28;20495;-73
2022/07/30 12:34:00;;;;;;;3.78;1.50;;;24.10;99.90;;;;;;4978012;28;20073;-72
2022/07/30 12:36:31;;;;;;;4.03;1.70;;;24.10;99.90;;;;;;4994610;28;20062;-73
2022/07/30 12:38:58;;;;;;;3.85;1.38;;;24.20;99.90;;;;;;4996128;28;20090;-74
2022/07/30 12:41:44;;;;;;;4.50;2.10;;;24.20;99.90;;;;;;4994699;28;20085;-72
2022/07/30 12:44:30;;;;;;;3.47;1.75;;;24.30;99.90;;;;;;4996316;28;20050;-74
2022/07/30 12:46:56;;;;;;;5.60;1.58;;;24.40;99.90;;;;;;4994401;28;20046;-73
2022/07/30 12:49:28;;;;;;;3.65;1.67;;;24.40;99.90;;;;;;4978250;28;20394;-73
2022/07/30 12:51:54;;;;;;;;;;;24.60;99.90;;;;;;4996127;28;20057;-75
2022/07/30 12:54:20;;;;;;;3.38;1.75;;;24.60;99.90;;;;;;4994549;28;20262;-75